createdAt,value
2023-03-06T00:00:55.098Z,2.90
2023-03-06T00:01:55.017Z,3.20
2023-03-06T00:02:54.995Z,3.00
2023-03-06T00:03:55.039Z,3.60
2023-03-06T00:04:54.983Z,3.20
2023-03-06T00:05:55.055Z,3.70
2023-03-06T00:06:54.977Z,3.50
2023-03-06T00:07:54.956Z,4.00
2023-03-06T00:08:54.931Z,3.50
2023-03-06T00:09:54.918Z,3.80
2023-03-06T00:10:54.921Z,2.90
2023-03-06T00:11:54.932Z,2.90
2023-03-06T00:12:54.890Z,3.60
2023-03-06T00:13:54.882Z,3.40
2023-03-06T00:14:54.881Z,3.80
2023-03-06T00:15:54.888Z,3.00
2023-03-06T00:16:54.880Z,3.00
2023-03-06T00:17:54.838Z,4.30
2023-03-06T00:18:54.832Z,3.50
2023-03-06T00:19:54.817Z,2.80
2023-03-06T00:20:54.820Z,3.30
2023-03-06T00:21:54.850Z,3.70
2023-03-06T00:22:54.783Z,3.30
2023-03-06T00:23:54.782Z,3.80
2023-03-06T00:24:54.783Z,3.80
2023-03-06T00:26:01.293Z,4.20
2023-03-06T00:26:54.769Z,3.50
2023-03-06T00:27:54.744Z,3.80
2023-03-06T00:28:54.736Z,4.40
2023-03-06T00:29:54.721Z,5.20
2023-03-06T00:30:54.714Z,5.80
2023-03-06T00:31:54.724Z,4.80
2023-03-06T00:32:54.687Z,4.00
2023-03-06T00:33:54.671Z,4.90
2023-03-06T00:34:54.659Z,5.10
2023-03-06T00:35:54.684Z,4.90
2023-03-06T00:36:54.660Z,4.20
2023-03-06T00:37:54.639Z,4.00
2023-03-06T00:39:01.110Z,4.80
2023-03-06T00:40:01.459Z,5.00
2023-03-06T00:40:54.598Z,5.10
2023-03-06T00:42:02.409Z,5.50
2023-03-06T00:42:54.589Z,5.60
2023-03-06T00:43:54.578Z,4.80
2023-03-06T00:45:01.050Z,4.90
2023-03-06T00:46:01.198Z,6.50
2023-03-06T00:46:54.558Z,5.40
2023-03-06T00:47:54.528Z,4.40
2023-03-06T00:48:54.521Z,4.50
2023-03-06T00:49:54.527Z,5.10
2023-03-06T00:50:54.514Z,5.40
2023-03-06T00:51:54.553Z,4.70
2023-03-06T00:52:54.528Z,5.00
2023-03-06T00:53:54.474Z,5.00
2023-03-06T00:54:54.458Z,4.70
2023-03-06T00:55:54.468Z,5.30
2023-03-06T00:56:54.446Z,5.20
2023-03-06T00:57:54.450Z,5.40
2023-03-06T00:58:54.450Z,5.90
2023-03-06T00:59:54.408Z,4.80
2023-03-06T01:00:54.471Z,4.60
2023-03-06T01:01:54.485Z,5.20
2023-03-06T01:02:54.396Z,4.90
2023-03-06T01:03:54.369Z,4.50
2023-03-06T01:04:54.354Z,5.40
2023-03-06T01:05:54.347Z,5.20
2023-03-06T01:06:54.347Z,5.00
2023-03-06T01:07:54.353Z,5.60
2023-03-06T01:08:54.309Z,8.50
2023-03-06T01:09:54.303Z,8.10
2023-03-06T01:10:54.291Z,6.10
2023-03-06T01:11:54.299Z,8.10
2023-03-06T01:12:54.290Z,6.20
2023-03-06T01:13:54.263Z,6.90
2023-03-06T01:14:54.246Z,6.00
2023-03-06T01:15:54.238Z,8.30
2023-03-06T01:16:54.246Z,9.20
2023-03-06T01:17:54.244Z,8.90
2023-03-06T01:18:54.210Z,8.10
2023-03-06T01:19:54.204Z,7.90
2023-03-06T01:20:54.205Z,10.60
2023-03-06T01:21:54.183Z,10.00
2023-03-06T01:22:54.192Z,11.00
2023-03-06T01:23:54.159Z,13.40
2023-03-06T01:24:54.192Z,9.40
2023-03-06T01:25:54.142Z,8.40
2023-03-06T01:26:54.135Z,7.60
2023-03-06T01:27:54.146Z,6.80
2023-03-06T01:28:54.117Z,11.40
2023-03-06T01:29:54.093Z,10.10
2023-03-06T01:30:54.099Z,9.40
2023-03-06T01:31:54.154Z,15.60
2023-03-06T01:32:54.094Z,9.90
2023-03-06T01:33:54.058Z,7.10
2023-03-06T01:34:54.050Z,8.70
2023-03-06T01:35:54.083Z,10.20
2023-03-06T01:36:54.025Z,10.50
2023-03-06T01:37:54.038Z,8.50
2023-03-06T01:38:54.022Z,10.30
2023-03-06T01:39:54.001Z,13.30
2023-03-06T01:40:53.983Z,10.40
2023-03-06T01:41:54.013Z,12.60
2023-03-06T01:42:53.984Z,14.50
2023-03-06T01:43:53.960Z,13.20
2023-03-06T01:44:53.972Z,15.10
2023-03-06T01:45:53.988Z,11.60
2023-03-06T01:46:53.929Z,10.90
2023-03-06T01:47:53.940Z,14.80
2023-03-06T01:48:53.905Z,17.40
2023-03-06T01:49:53.909Z,12.10
2023-03-06T01:50:53.909Z,12.50
2023-03-06T01:51:53.896Z,14.50
2023-03-06T01:52:53.891Z,17.40
2023-03-06T01:53:53.860Z,16.80
2023-03-06T01:54:53.841Z,12.50
2023-03-06T01:55:53.849Z,13.00
2023-03-06T01:56:53.841Z,15.10
2023-03-06T01:57:53.862Z,16.40
2023-03-06T01:58:53.807Z,21.90
2023-03-06T01:59:53.803Z,22.40
2023-03-06T02:00:53.829Z,24.10
2023-03-06T02:01:53.780Z,12.10
2023-03-06T02:02:53.783Z,16.00
2023-03-06T02:03:53.775Z,16.50
2023-03-06T02:04:53.743Z,18.00
2023-03-06T02:05:53.741Z,15.90
2023-03-06T02:06:53.723Z,9.90
2023-03-06T02:07:53.752Z,10.30
2023-03-06T02:08:53.718Z,14.20
2023-03-06T02:09:53.706Z,18.30
2023-03-06T02:10:53.702Z,17.40
2023-03-06T02:11:53.679Z,18.60
2023-03-06T02:12:53.686Z,14.30
2023-03-06T02:13:53.714Z,14.10
2023-03-06T02:14:53.679Z,17.50
2023-03-06T02:15:53.652Z,14.80
2023-03-06T02:16:53.631Z,15.90
2023-03-06T02:17:53.651Z,20.70
2023-03-06T02:18:53.605Z,24.50
2023-03-06T02:19:53.608Z,21.20
2023-03-06T02:20:53.584Z,23.60
2023-03-06T02:21:53.571Z,22.30
2023-03-06T02:22:53.609Z,13.80
2023-03-06T02:23:53.558Z,16.10
2023-03-06T02:24:53.542Z,19.40
2023-03-06T02:25:53.554Z,27.00
2023-03-06T02:26:53.520Z,19.70
2023-03-06T02:27:53.543Z,22.30
2023-03-06T02:28:53.503Z,24.70
2023-03-06T02:29:53.509Z,18.60
2023-03-06T02:30:53.537Z,18.20
2023-03-06T02:31:53.480Z,16.50
2023-03-06T02:32:53.498Z,16.00
2023-03-06T02:33:53.454Z,21.80
2023-03-06T02:34:53.478Z,19.40
2023-03-06T02:35:53.479Z,19.60
2023-03-06T02:36:53.434Z,18.90
2023-03-06T02:37:53.418Z,18.40
2023-03-06T02:38:53.426Z,14.90
2023-03-06T02:39:53.410Z,10.80
2023-03-06T02:40:53.401Z,12.00
2023-03-06T02:41:53.376Z,14.80
2023-03-06T02:42:53.367Z,17.10
2023-03-06T02:43:53.393Z,16.10
2023-03-06T02:44:53.340Z,12.70
2023-03-06T02:45:53.361Z,10.90
2023-03-06T02:46:53.354Z,12.10
2023-03-06T02:47:53.331Z,9.70
2023-03-06T02:48:53.321Z,11.40
2023-03-06T02:49:53.308Z,10.90
2023-03-06T02:50:53.269Z,10.30
2023-03-06T02:51:53.282Z,15.20
2023-03-06T02:52:53.292Z,14.00
2023-03-06T02:53:53.276Z,10.00
2023-03-06T02:54:53.235Z,9.60
2023-03-06T02:55:53.257Z,10.10
2023-03-06T02:56:53.203Z,9.20
2023-03-06T02:57:53.236Z,7.60
2023-03-06T02:58:53.226Z,9.00
2023-03-06T02:59:53.198Z,7.50
2023-03-06T03:00:53.179Z,9.00
2023-03-06T03:01:53.246Z,9.50
2023-03-06T03:02:53.156Z,9.40
2023-03-06T03:03:53.178Z,7.60
2023-03-06T03:04:53.235Z,7.40
2023-03-06T03:05:53.131Z,8.00
2023-03-06T03:06:53.109Z,7.10
2023-03-06T03:07:53.115Z,9.60
2023-03-06T03:08:53.129Z,11.60
2023-03-06T03:09:53.078Z,9.90
2023-03-06T03:10:53.078Z,16.20
2023-03-06T03:11:53.069Z,9.00
2023-03-06T03:12:53.042Z,9.40
2023-03-06T03:13:53.082Z,10.00
2023-03-06T03:14:53.030Z,10.60
2023-03-06T03:15:53.052Z,12.10
2023-03-06T03:16:53.008Z,11.60
2023-03-06T03:17:53.003Z,11.70
2023-03-06T03:18:53.039Z,12.90
2023-03-06T03:19:52.987Z,11.20
2023-03-06T03:20:52.970Z,10.20
2023-03-06T03:21:52.962Z,8.70
2023-03-06T03:22:52.939Z,8.40
2023-03-06T03:23:52.975Z,10.40
2023-03-06T03:24:53.077Z,15.50
2023-03-06T03:25:52.923Z,10.20
2023-03-06T03:26:52.905Z,13.30
2023-03-06T03:27:52.908Z,14.50
2023-03-06T03:28:52.934Z,15.10
2023-03-06T03:29:52.878Z,15.00
2023-03-06T03:30:52.897Z,13.50
2023-03-06T03:31:52.888Z,13.10
2023-03-06T03:32:52.856Z,11.90
2023-03-06T03:33:52.864Z,11.90
2023-03-06T03:34:52.820Z,12.50
2023-03-06T03:35:52.859Z,16.30
2023-03-06T03:36:52.816Z,16.40
2023-03-06T03:37:52.793Z,15.50
2023-03-06T03:38:52.812Z,14.40
2023-03-06T03:39:52.771Z,12.90
2023-03-06T03:40:52.764Z,11.00
2023-03-06T03:41:52.759Z,14.90
2023-03-06T03:42:52.768Z,11.80
2023-03-06T03:43:52.777Z,13.30
2023-03-06T03:44:52.733Z,9.80
2023-03-06T03:45:52.716Z,8.50
2023-03-06T03:46:52.703Z,11.40
2023-03-06T03:47:52.691Z,14.60
2023-03-06T03:48:52.704Z,14.00
2023-03-06T03:49:52.673Z,14.20
2023-03-06T03:50:52.658Z,16.20
2023-03-06T03:51:52.669Z,10.20
2023-03-06T03:52:52.679Z,17.00
2023-03-06T03:53:52.677Z,17.10
2023-03-06T03:54:52.625Z,13.90
2023-03-06T03:55:52.615Z,11.20
2023-03-06T03:56:52.603Z,11.50
2023-03-06T03:57:52.604Z,15.40
2023-03-06T03:58:52.589Z,15.90
2023-03-06T03:59:52.606Z,15.20
2023-03-06T04:00:52.554Z,22.10
2023-03-06T04:01:52.628Z,26.40
2023-03-06T04:02:52.542Z,11.20
2023-03-06T04:03:52.527Z,14.90
2023-03-06T04:04:52.619Z,20.00
2023-03-06T04:05:52.500Z,16.30
2023-03-06T04:06:52.497Z,15.00
2023-03-06T04:07:52.520Z,16.30
2023-03-06T04:08:52.481Z,13.40
2023-03-06T04:09:52.492Z,16.30
2023-03-06T04:10:52.464Z,20.10
2023-03-06T04:11:52.445Z,22.00
2023-03-06T04:12:52.449Z,17.60
2023-03-06T04:13:52.440Z,19.00
2023-03-06T04:14:52.443Z,14.10
2023-03-06T04:15:52.467Z,15.70
2023-03-06T04:16:52.396Z,24.00
2023-03-06T04:17:52.378Z,34.50
2023-03-06T04:18:52.392Z,25.10
2023-03-06T04:19:52.399Z,15.70
2023-03-06T04:20:52.363Z,20.60
2023-03-06T04:21:52.341Z,26.80
2023-03-06T04:22:52.336Z,28.80
2023-03-06T04:23:52.319Z,28.50
2023-03-06T04:24:52.360Z,29.40
2023-03-06T04:25:52.301Z,42.00
2023-03-06T04:26:52.299Z,54.50
2023-03-06T04:27:52.293Z,41.00
2023-03-06T04:28:52.263Z,30.80
2023-03-06T04:29:52.275Z,23.40
2023-03-06T04:30:58.733Z,27.10
2023-03-06T04:31:58.730Z,38.10
2023-03-06T04:32:58.716Z,36.20
2023-03-06T04:33:59.723Z,28.60
2023-03-06T04:35:00.981Z,25.20
2023-03-06T04:35:52.248Z,25.20
2023-03-06T04:36:52.178Z,28.20
2023-03-06T04:37:52.185Z,31.20
2023-03-06T04:38:52.200Z,28.20
2023-03-06T04:39:52.191Z,25.60
2023-03-06T04:40:52.163Z,29.30
2023-03-06T04:41:52.141Z,35.40
2023-03-06T04:42:52.116Z,34.00
2023-03-06T04:43:52.114Z,33.90
2023-03-06T04:44:52.165Z,36.30
2023-03-06T04:45:52.204Z,25.80
2023-03-06T04:46:52.081Z,23.40
2023-03-06T04:47:52.072Z,25.50
2023-03-06T04:48:52.062Z,20.70
2023-03-06T04:49:52.080Z,19.80
2023-03-06T04:50:58.536Z,24.50
2023-03-06T04:51:58.545Z,22.30
2023-03-06T04:52:52.015Z,18.70
2023-03-06T04:53:52.013Z,17.00
2023-03-06T04:54:52.014Z,22.70
2023-03-06T04:55:51.993Z,24.20
2023-03-06T04:56:51.996Z,21.70
2023-03-06T04:57:51.975Z,19.70
2023-03-06T04:58:51.960Z,19.90
2023-03-06T04:59:52.028Z,11.10
2023-03-06T05:00:51.977Z,15.10
2023-03-06T05:01:52.012Z,11.30
2023-03-06T05:02:51.907Z,16.50
2023-03-06T05:03:51.909Z,17.60
2023-03-06T05:04:51.901Z,16.00
2023-03-06T05:05:51.899Z,13.60
2023-03-06T05:06:51.875Z,18.00
2023-03-06T05:07:51.879Z,20.30
2023-03-06T05:08:51.845Z,17.00
2023-03-06T05:09:51.849Z,13.50
2023-03-06T05:10:51.859Z,15.40
2023-03-06T05:11:51.817Z,15.90
2023-03-06T05:12:51.805Z,14.60
2023-03-06T05:13:51.796Z,11.50
2023-03-06T05:14:51.786Z,15.40
2023-03-06T05:15:51.857Z,18.60
2023-03-06T05:16:51.767Z,18.10
2023-03-06T05:17:51.758Z,15.70
2023-03-06T05:18:51.739Z,16.30
2023-03-06T05:19:51.733Z,20.70
2023-03-06T05:20:51.777Z,13.80
2023-03-06T05:21:51.725Z,11.90
2023-03-06T05:22:51.784Z,14.20
2023-03-06T05:23:51.689Z,13.60
2023-03-06T05:24:51.690Z,21.80
2023-03-06T05:25:51.686Z,17.10
2023-03-06T05:26:51.722Z,14.70
2023-03-06T05:27:51.654Z,10.30
2023-03-06T05:28:51.631Z,10.90
2023-03-06T05:29:51.637Z,15.80
2023-03-06T05:30:51.587Z,15.80
2023-03-06T05:31:51.718Z,14.00
2023-03-06T05:32:51.709Z,11.90
2023-03-06T05:33:51.611Z,15.30
2023-03-06T05:34:51.571Z,18.40
2023-03-06T05:35:51.647Z,14.80
2023-03-06T05:36:51.562Z,15.00
2023-03-06T05:37:51.548Z,11.10
2023-03-06T05:38:51.526Z,9.80
2023-03-06T05:39:51.546Z,11.30
2023-03-06T05:40:52.103Z,11.30
2023-03-06T05:41:51.527Z,7.90
2023-03-06T05:42:51.440Z,8.80
2023-03-06T05:43:51.484Z,8.10
2023-03-06T05:44:51.425Z,11.60
2023-03-06T05:45:51.476Z,13.70
2023-03-06T05:46:51.422Z,12.00
2023-03-06T05:47:51.396Z,10.20
2023-03-06T05:48:51.380Z,8.70
2023-03-06T05:49:51.378Z,13.40
2023-03-06T05:50:51.396Z,15.50
2023-03-06T05:51:51.663Z,10.30
2023-03-06T05:52:51.346Z,7.90
2023-03-06T05:53:51.325Z,10.00
2023-03-06T05:54:51.324Z,10.30
2023-03-06T05:55:51.322Z,11.70
2023-03-06T05:56:51.302Z,11.80
2023-03-06T05:57:51.305Z,11.10
2023-03-06T05:58:51.276Z,11.20
2023-03-06T05:59:51.298Z,12.60
2023-03-06T06:00:51.287Z,10.50
2023-03-06T06:01:51.260Z,12.60
2023-03-06T06:02:51.222Z,8.90
2023-03-06T06:03:51.230Z,11.60
2023-03-06T06:04:51.208Z,12.00
2023-03-06T06:05:51.193Z,9.70
2023-03-06T06:06:51.200Z,10.40
2023-03-06T06:07:51.185Z,11.30
2023-03-06T06:08:51.159Z,8.10
2023-03-06T06:09:51.164Z,11.30
2023-03-06T06:10:53.373Z,12.60
2023-03-06T06:11:51.159Z,8.60
2023-03-06T06:12:51.116Z,11.70
2023-03-06T06:13:51.119Z,9.90
2023-03-06T06:14:51.102Z,10.70
2023-03-06T06:15:51.128Z,10.70
2023-03-06T06:16:51.102Z,12.40
2023-03-06T06:17:51.082Z,12.80
2023-03-06T06:18:51.055Z,13.00
2023-03-06T06:19:51.095Z,10.00
2023-03-06T06:20:51.036Z,13.80
2023-03-06T06:21:51.056Z,11.70
2023-03-06T06:22:51.069Z,10.30
2023-03-06T06:23:51.005Z,12.50
2023-03-06T06:24:50.994Z,11.80
2023-03-06T06:25:52.023Z,14.30
2023-03-06T06:26:50.997Z,13.30
2023-03-06T06:27:50.968Z,13.20
2023-03-06T06:28:50.959Z,15.20
2023-03-06T06:29:50.962Z,12.10
2023-03-06T06:30:50.975Z,12.90
2023-03-06T06:31:50.964Z,14.60
2023-03-06T06:32:50.917Z,16.40
2023-03-06T06:33:50.908Z,15.90
2023-03-06T06:34:50.895Z,16.60
2023-03-06T06:35:50.983Z,13.60
2023-03-06T06:36:53.249Z,15.00
2023-03-06T06:37:50.870Z,18.20
2023-03-06T06:38:50.858Z,23.30
2023-03-06T06:39:50.862Z,15.90
2023-03-06T06:41:26.921Z,15.30
2023-03-06T06:42:09.708Z,14.90
2023-03-06T06:42:50.820Z,11.50
2023-03-06T06:43:50.818Z,14.50
2023-03-06T06:44:50.808Z,13.70
2023-03-06T06:45:50.831Z,11.60
2023-03-06T06:47:50.831Z,14.70
2023-03-06T06:48:50.753Z,14.60
2023-03-06T06:49:50.768Z,19.40
2023-03-06T06:50:50.770Z,17.90
2023-03-06T06:51:50.746Z,20.60
2023-03-06T06:52:50.746Z,12.90
2023-03-06T06:53:50.725Z,19.10
2023-03-06T06:54:50.691Z,23.40
2023-03-06T06:55:50.698Z,28.10
2023-03-06T06:56:50.705Z,20.50
2023-03-06T06:57:50.693Z,22.50
2023-03-06T06:58:50.638Z,28.10
2023-03-06T06:59:52.568Z,32.60
2023-03-06T07:00:50.648Z,40.60
2023-03-06T07:01:50.721Z,33.30
2023-03-06T07:02:50.653Z,24.30
2023-03-06T07:03:50.657Z,26.10
2023-03-06T07:05:03.107Z,30.20
2023-03-06T07:05:50.586Z,40.00
2023-03-06T07:06:50.584Z,27.50
2023-03-06T07:07:50.606Z,32.60
2023-03-06T07:08:50.568Z,33.40
2023-03-06T07:09:50.540Z,36.70
2023-03-06T07:10:50.516Z,42.60
2023-03-06T07:11:50.548Z,43.80
2023-03-06T07:12:50.527Z,47.60
2023-03-06T07:13:50.497Z,44.90
2023-03-06T07:14:50.505Z,29.00
2023-03-06T07:15:50.501Z,43.50
2023-03-06T07:16:50.468Z,48.10
2023-03-06T07:17:50.524Z,51.50
2023-03-06T07:18:50.437Z,41.60
2023-03-06T07:19:50.444Z,33.90
2023-03-06T07:20:50.413Z,34.60
2023-03-06T07:21:50.413Z,24.70
2023-03-06T07:22:51.946Z,25.30
2023-03-06T07:23:50.398Z,28.50
2023-03-06T07:24:50.379Z,36.90
2023-03-06T07:25:50.377Z,32.80
2023-03-06T07:26:50.357Z,33.20
2023-03-06T07:27:53.744Z,28.20
2023-03-06T07:28:52.896Z,38.50
2023-03-06T07:29:50.343Z,43.20
2023-03-06T07:30:50.353Z,36.50
2023-03-06T07:31:50.306Z,49.80
2023-03-06T07:32:50.318Z,72.50
2023-03-06T07:33:50.281Z,80.70
2023-03-06T07:34:50.275Z,29.30
2023-03-06T07:35:50.297Z,27.60
2023-03-06T07:36:50.250Z,29.40
2023-03-06T07:37:50.298Z,33.90
2023-03-06T07:38:50.252Z,43.10
2023-03-06T07:39:50.217Z,37.00
2023-03-06T07:40:50.210Z,47.70
2023-03-06T07:41:50.218Z,45.20
2023-03-06T07:42:50.221Z,68.40
2023-03-06T07:43:50.195Z,57.40
2023-03-06T07:44:50.171Z,60.80
2023-03-06T07:45:50.184Z,59.90
2023-03-06T07:46:50.203Z,46.70
2023-03-06T07:47:50.137Z,47.90
2023-03-06T07:48:50.156Z,64.50
2023-03-06T07:49:50.120Z,81.30
2023-03-06T07:50:50.104Z,63.50
2023-03-06T07:51:50.110Z,66.00
2023-03-06T07:52:50.086Z,42.70
2023-03-06T07:53:50.097Z,34.00
2023-03-06T07:54:50.071Z,57.20
2023-03-06T07:55:50.058Z,59.40
2023-03-06T07:56:50.050Z,52.90
2023-03-06T07:57:50.069Z,67.00
2023-03-06T07:58:50.056Z,86.20
2023-03-06T07:59:50.020Z,67.80
2023-03-06T08:00:50.033Z,52.80
2023-03-06T08:01:49.999Z,49.40
2023-03-06T08:02:50.072Z,44.10
2023-03-06T08:03:50.320Z,43.00
2023-03-06T08:04:49.968Z,32.00
2023-03-06T08:05:49.953Z,41.90
2023-03-06T08:06:49.971Z,63.60
2023-03-06T08:07:49.962Z,79.90
2023-03-06T08:08:50.000Z,83.50
2023-03-06T08:09:49.932Z,81.40
2023-03-06T08:10:49.898Z,83.30
2023-03-06T08:11:49.894Z,71.10
2023-03-06T08:12:49.879Z,78.10
2023-03-06T08:13:49.943Z,67.50
2023-03-06T08:14:49.852Z,71.30
2023-03-06T08:15:49.890Z,66.90
2023-03-06T08:16:49.851Z,65.90
2023-03-06T08:17:49.829Z,61.80
2023-03-06T08:18:49.838Z,81.50
2023-03-06T08:19:49.802Z,75.10
2023-03-06T08:20:49.797Z,49.80
2023-03-06T08:21:49.798Z,73.10
2023-03-06T08:22:57.280Z,79.50
2023-03-06T08:23:49.807Z,77.10
2023-03-06T08:24:49.750Z,78.40
2023-03-06T08:25:49.740Z,102.50
2023-03-06T08:26:49.751Z,92.70
2023-03-06T08:27:49.717Z,93.20
2023-03-06T08:28:49.759Z,89.70
2023-03-06T08:29:49.699Z,88.30
2023-03-06T08:30:49.694Z,95.40
2023-03-06T08:31:49.823Z,104.20
2023-03-06T08:32:49.674Z,97.70
2023-03-06T08:33:49.698Z,90.40
2023-03-06T08:34:49.669Z,82.80
2023-03-06T08:35:49.715Z,92.80
2023-03-06T08:36:49.648Z,92.50
2023-03-06T08:37:49.621Z,95.80
2023-03-06T08:38:49.638Z,94.60
2023-03-06T08:39:49.610Z,102.20
2023-03-06T08:40:49.628Z,112.20
2023-03-06T08:41:49.571Z,130.30
2023-03-06T08:42:49.583Z,128.10
2023-03-06T08:43:49.597Z,110.90
2023-03-06T08:44:49.557Z,115.10
2023-03-06T08:45:49.617Z,110.30
2023-03-06T08:46:49.537Z,117.20
2023-03-06T08:47:49.574Z,110.90
2023-03-06T08:48:49.519Z,106.80
2023-03-06T08:49:49.518Z,107.50
2023-03-06T08:50:49.497Z,112.10
2023-03-06T08:51:49.508Z,119.20
2023-03-06T08:52:49.466Z,126.10
2023-03-06T08:53:49.461Z,126.90
2023-03-06T08:54:49.475Z,131.20
2023-03-06T08:55:49.432Z,122.10
2023-03-06T08:56:49.425Z,99.80
2023-03-06T08:57:49.439Z,97.00
2023-03-06T08:58:49.392Z,108.40
2023-03-06T08:59:49.404Z,113.20
2023-03-06T09:00:49.479Z,107.70
2023-03-06T09:01:49.360Z,98.40
2023-03-06T09:02:49.376Z,118.90
2023-03-06T09:03:49.410Z,122.50
2023-03-06T09:04:49.374Z,116.20
2023-03-06T09:05:49.319Z,110.80
2023-03-06T09:06:49.332Z,94.70
2023-03-06T09:07:49.297Z,84.00
2023-03-06T09:08:49.316Z,111.00
2023-03-06T09:09:49.313Z,101.00
2023-03-06T09:10:49.317Z,104.60
2023-03-06T09:11:49.257Z,99.40
2023-03-06T09:12:52.001Z,108.20
2023-03-06T09:13:49.248Z,110.10
2023-03-06T09:14:58.030Z,123.20
2023-03-06T09:15:49.209Z,117.50
2023-03-06T09:16:49.295Z,112.80
2023-03-06T09:17:49.282Z,106.00
2023-03-06T09:18:49.191Z,81.40
2023-03-06T09:19:49.227Z,86.80
2023-03-06T09:20:49.159Z,99.50
2023-03-06T09:21:49.193Z,92.30
2023-03-06T09:22:49.162Z,90.80
2023-03-06T09:23:49.135Z,89.50
2023-03-06T09:24:49.153Z,75.40
2023-03-06T09:25:49.124Z,72.80
2023-03-06T09:26:51.422Z,58.60
2023-03-06T09:27:58.352Z,54.60
2023-03-06T09:28:49.107Z,51.80
2023-03-06T09:29:49.121Z,55.00
2023-03-06T09:30:49.105Z,66.00
2023-03-06T09:31:49.050Z,60.90
2023-03-06T09:32:49.049Z,64.80
2023-03-06T09:33:49.022Z,59.80
2023-03-06T09:34:49.052Z,58.90
2023-03-06T09:35:49.089Z,59.10
2023-03-06T09:36:56.631Z,64.80
2023-03-06T09:37:48.992Z,85.30
2023-03-06T09:38:48.980Z,80.40
2023-03-06T09:39:49.024Z,54.10
2023-03-06T09:40:48.960Z,59.10
2023-03-06T09:41:48.947Z,68.50
2023-03-06T09:42:48.946Z,77.30
2023-03-06T09:43:48.936Z,72.50
2023-03-06T09:44:48.937Z,83.80
2023-03-06T09:45:48.969Z,92.50
2023-03-06T09:46:48.894Z,91.90
2023-03-06T09:47:48.883Z,92.90
2023-03-06T09:48:48.898Z,79.20
2023-03-06T09:49:48.906Z,65.60
2023-03-06T09:50:48.884Z,57.00
2023-03-06T09:51:48.860Z,45.20
2023-03-06T09:52:48.850Z,49.00
2023-03-06T09:53:48.821Z,36.70
2023-03-06T09:54:48.846Z,42.70
2023-03-06T09:55:48.831Z,37.20
2023-03-06T09:56:48.802Z,42.50
2023-03-06T09:57:50.508Z,55.70
2023-03-06T09:58:48.804Z,54.60
2023-03-06T09:59:48.877Z,51.80
2023-03-06T10:00:48.763Z,45.50
2023-03-06T10:01:48.755Z,28.90
2023-03-06T10:02:48.835Z,39.10
2023-03-06T10:03:48.742Z,52.00
2023-03-06T10:04:48.800Z,53.00
2023-03-06T10:05:48.699Z,48.30
2023-03-06T10:06:48.687Z,46.10
2023-03-06T10:07:48.668Z,47.70
2023-03-06T10:08:48.681Z,52.70
2023-03-06T10:09:48.701Z,63.70
2023-03-06T10:10:48.670Z,58.10
2023-03-06T10:11:48.627Z,53.20
2023-03-06T10:12:48.639Z,45.10
2023-03-06T10:13:48.607Z,45.60
2023-03-06T10:14:49.444Z,43.40
2023-03-06T10:15:48.651Z,49.70
2023-03-06T10:16:48.594Z,45.30
2023-03-06T10:17:48.568Z,52.50
2023-03-06T10:18:48.574Z,47.30
2023-03-06T10:19:48.560Z,44.30
2023-03-06T10:20:48.580Z,33.70
2023-03-06T10:21:48.541Z,48.40
2023-03-06T10:23:00.613Z,47.80
2023-03-06T10:23:48.528Z,41.40
2023-03-06T10:24:48.505Z,40.30
2023-03-06T10:25:48.529Z,37.90
2023-03-06T10:26:48.563Z,34.70
2023-03-06T10:27:48.477Z,25.10
2023-03-06T10:28:48.495Z,24.20
2023-03-06T10:30:01.726Z,26.90
2023-03-06T10:30:48.498Z,36.00
2023-03-06T10:31:49.247Z,39.70
2023-03-06T10:32:49.496Z,40.90
2023-03-06T10:33:48.415Z,35.40
2023-03-06T10:34:48.401Z,12.90
2023-03-06T10:35:48.483Z,15.90
2023-03-06T10:36:48.391Z,17.50
2023-03-06T10:37:48.390Z,28.10
2023-03-06T10:38:48.395Z,42.60
2023-03-06T10:39:48.346Z,32.00
2023-03-06T10:40:48.368Z,34.30
2023-03-06T10:41:48.331Z,42.10
2023-03-06T10:42:52.090Z,44.10
2023-03-06T10:43:48.326Z,30.30
2023-03-06T10:44:48.325Z,31.40
2023-03-06T10:45:49.542Z,20.70
2023-03-06T10:46:48.333Z,38.50
2023-03-06T10:47:48.283Z,39.40
2023-03-06T10:48:48.256Z,40.60
2023-03-06T10:49:48.261Z,56.50
2023-03-06T10:50:48.265Z,63.30
2023-03-06T10:51:48.226Z,43.80
2023-03-06T10:52:48.225Z,49.80
2023-03-06T10:53:48.234Z,58.60
2023-03-06T10:54:48.255Z,60.20
2023-03-06T10:55:48.212Z,64.30
2023-03-06T10:56:48.198Z,64.60
2023-03-06T10:57:48.177Z,59.20
2023-03-06T10:58:48.193Z,44.20
2023-03-06T10:59:48.152Z,17.90
2023-03-06T11:00:48.168Z,9.20
2023-03-06T11:01:48.194Z,5.80
2023-03-06T11:02:48.134Z,3.90
2023-03-06T11:03:48.101Z,5.50
2023-03-06T11:04:48.201Z,6.40
2023-03-06T11:05:48.130Z,11.00
2023-03-06T11:06:48.093Z,9.20
2023-03-06T11:07:48.079Z,14.50
2023-03-06T11:08:48.062Z,15.70
2023-03-06T11:09:48.062Z,5.70
2023-03-06T11:10:48.087Z,3.00
2023-03-06T11:11:48.058Z,3.50
2023-03-06T11:12:48.055Z,5.20
2023-03-06T11:13:48.052Z,4.40
2023-03-06T11:14:48.140Z,2.70
2023-03-06T11:15:48.018Z,1.30
2023-03-06T11:16:48.055Z,1.20
2023-03-06T11:17:47.991Z,1.40
2023-03-06T11:18:47.955Z,1.70
2023-03-06T11:19:47.934Z,1.60
2023-03-06T11:20:52.503Z,1.20
2023-03-06T11:21:47.947Z,1.30
2023-03-06T11:22:49.205Z,1.40
2023-03-06T11:23:47.938Z,1.20
2023-03-06T11:24:47.883Z,1.20
2023-03-06T11:25:47.879Z,1.30
2023-03-06T11:26:47.881Z,0.90
2023-03-06T11:27:47.870Z,1.00
2023-03-06T11:28:47.916Z,0.90
2023-03-06T11:29:47.828Z,1.00
2023-03-06T11:30:47.838Z,1.40
2023-03-06T11:31:47.853Z,1.20
2023-03-06T11:32:47.796Z,1.20
2023-03-06T11:33:47.779Z,1.00
2023-03-06T11:34:50.288Z,1.30
2023-03-06T11:35:47.790Z,1.50
2023-03-06T11:36:47.793Z,1.10
2023-03-06T11:37:47.831Z,1.00
2023-03-06T11:38:47.736Z,1.40
2023-03-06T11:39:47.720Z,0.80
2023-03-06T11:40:47.742Z,0.90
2023-03-06T11:41:47.718Z,0.80
2023-03-06T11:42:47.696Z,0.70
2023-03-06T11:43:47.678Z,0.80
2023-03-06T11:44:47.683Z,0.80
2023-03-06T11:45:47.653Z,0.80
2023-03-06T11:46:47.737Z,1.10
2023-03-06T11:47:47.645Z,0.50
2023-03-06T11:48:47.665Z,0.70
2023-03-06T11:49:47.609Z,0.80
2023-03-06T11:50:47.648Z,0.50
2023-03-06T11:51:47.592Z,0.80
2023-03-06T11:52:47.611Z,0.80
2023-03-06T11:53:47.567Z,1.20
2023-03-06T11:54:47.588Z,0.70
2023-03-06T11:55:47.549Z,0.80
2023-03-06T11:56:47.569Z,0.80
2023-03-06T11:57:47.590Z,0.60
2023-03-06T11:58:47.522Z,1.00
2023-03-06T11:59:47.523Z,0.90
2023-03-06T12:00:47.515Z,0.80
2023-03-06T12:01:47.553Z,0.80
2023-03-06T12:02:47.530Z,0.60
2023-03-06T12:03:47.475Z,1.30
2023-03-06T12:04:47.469Z,0.80
2023-03-06T12:05:47.518Z,0.70
2023-03-06T12:06:47.456Z,0.80
2023-03-06T12:07:47.471Z,0.90
2023-03-06T12:08:47.434Z,0.70
2023-03-06T12:09:47.415Z,0.90
2023-03-06T12:10:51.594Z,0.90
2023-03-06T12:11:47.378Z,0.90
2023-03-06T12:12:47.483Z,1.20
2023-03-06T12:13:47.364Z,0.90
2023-03-06T12:14:47.367Z,0.80
2023-03-06T12:15:47.353Z,0.90
2023-03-06T12:16:47.408Z,1.00
2023-03-06T12:17:47.342Z,1.00
2023-03-06T12:18:47.327Z,0.90
2023-03-06T12:19:47.305Z,0.60
2023-03-06T12:20:47.301Z,1.10
2023-03-06T12:21:47.280Z,1.10
2023-03-06T12:22:57.749Z,0.60
2023-03-06T12:23:47.262Z,0.90
2023-03-06T12:24:47.260Z,1.10
2023-03-06T12:25:47.278Z,0.70
2023-03-06T12:26:47.252Z,0.80
2023-03-06T12:27:47.281Z,0.90
2023-03-06T12:28:47.226Z,0.80
2023-03-06T12:29:47.193Z,0.70
2023-03-06T12:30:47.191Z,0.60
2023-03-06T12:31:47.272Z,0.60
2023-03-06T12:32:47.260Z,0.60
2023-03-06T12:33:47.184Z,0.70
2023-03-06T12:34:47.216Z,0.50
2023-03-06T12:35:47.162Z,0.60
2023-03-06T12:36:47.308Z,0.50
2023-03-06T12:37:47.138Z,0.70
2023-03-06T12:38:47.144Z,0.50
2023-03-06T12:39:47.106Z,0.60
2023-03-06T12:40:47.092Z,0.80
2023-03-06T12:41:47.078Z,0.80
2023-03-06T12:42:47.079Z,0.60
2023-03-06T12:43:47.140Z,0.70
2023-03-06T12:44:47.053Z,1.10
2023-03-06T12:45:47.101Z,0.60
2023-03-06T12:46:47.057Z,0.70
2023-03-06T12:47:47.018Z,0.70
2023-03-06T12:48:47.019Z,1.00
2023-03-06T12:49:47.592Z,0.90
2023-03-06T12:50:47.033Z,0.60
2023-03-06T12:51:46.974Z,0.70
2023-03-06T12:52:46.949Z,0.80
2023-03-06T12:53:46.981Z,0.60
2023-03-06T12:54:46.956Z,0.80
2023-03-06T12:55:46.935Z,0.50
2023-03-06T12:56:46.921Z,0.60
2023-03-06T12:57:53.394Z,0.60
2023-03-06T12:58:54.538Z,0.60
2023-03-06T12:59:46.957Z,0.70
2023-03-06T13:00:49.891Z,0.70